Daily Tabular Data
[Select Refresh to Update]


8/21/19
Time         Wind Dir   Wind Spd  Wind Gust     Hum In   Humidity    Temp In       Temp  Raw Barom   Tot Rain Wind Chill Heat Ix In Heat Index  Dew Point  DailyRain   HourRain   RainRate
                            mph        mph          %          %         F         F         in         in         F         F         F         F         in         in      in/hr
12:00am           213          0          0         57         83       79.1       66.6      29.03       0.07       66.6       80.6       71.2       61.3       0.00       0.00      0.000
12:30am           208          0          0         57         80       78.9       66.5      29.03       0.07       66.5       80.4       70.7       60.1       0.00       0.00      0.000
1:00am            209          0          0         57         82       78.7       65.8      29.02       0.07       65.8       80.2       70.3       60.2       0.00       0.00      0.000
1:30am            208          0          0         57         85       78.5       64.5      29.01       0.07       64.5       80.0       69.4       59.9       0.00       0.00      0.000
2:00am            208          0          0         57         84       78.3       64.3      29.01       0.07       64.3       79.8       69.1       59.4       0.00       0.00      0.000
2:30am            240          0          0         57         83       78.2       63.7      29.01       0.07       63.7       79.7       68.3       58.4       0.00       0.00      0.000
3:00am            240          0          0         57         85       77.9       62.8      29.01       0.07       62.8       79.4       67.7       58.2       0.00       0.00      0.000
3:30am            240          0          0         57         86       77.7       62.5      29.01       0.07       62.5       79.2       67.6       58.3       0.00       0.00      0.000
4:00am            240          0          0         56         85       77.5       61.5      29.00       0.07       61.5       78.9       66.4       57.0       0.00       0.00      0.000
4:30am            240          0          1         56         86       77.2       61.9      28.99       0.07       61.9       78.6       67.0       57.7       0.00       0.00      0.000
5:00am            240          0          0         56         87       76.9       60.5      28.99       0.07       60.5       78.3       65.7       56.6       0.00       0.00      0.000
5:30am            240          0          0         56         85       76.7       60.7      29.00       0.07       60.7       78.1       65.6       56.2       0.00       0.00      0.000
6:00am            240          0          0         56         84       76.5       60.2      29.00       0.07       60.2       77.9       65.0       55.4       0.00       0.00      0.000
6:30am            240          0          0         56         83       76.3       60.3      29.00       0.07       60.3       77.7       64.9       55.1       0.00       0.00      0.000
7:00am            240          0          0         55         85       76.1       61.4      29.00       0.07       61.4       77.4       66.3       56.9       0.00       0.00      0.000
7:30am            240          0          0         55         76       75.9       66.5      29.01       0.07       66.5       77.2       70.2       58.7       0.00       0.00      0.000
8:00am            244          0          0         55         76       75.8       67.8      29.01       0.07       67.8       77.1       71.5       60.0       0.00       0.00      0.000
8:30am            199          0          0         54         62       76.0       74.1      29.02       0.07       74.1       77.2       76.1       60.3       0.00       0.00      0.000
9:00am             90          0          2         54         60       76.3       77.2      29.02       0.07       77.2       77.5       79.0       62.3       0.00       0.00      0.000
9:30am            223          0          1         54         60       76.4       76.9      29.02       0.07       76.9       77.6       78.7       62.0       0.00       0.00      0.000
10:00am           247          0          3         54         59       76.7       77.4      29.02       0.07       77.4       77.9       79.1       62.0       0.00       0.00      0.000
10:30am           252          0          3         54         53       76.9       80.2      29.03       0.07       80.2       78.1       81.3       61.5       0.00       0.00      0.000
11:00am           207          0          4         53         46       77.2       83.7      29.02       0.07       83.7       78.3       84.0       60.7       0.00       0.00      0.000
11:30am           225          1          4         53         40       77.5       85.7      29.01       0.07       85.7       78.6       85.1       58.6       0.00       0.00      0.000
12:00pm           207          0          5         53         39       77.8       87.2      29.01       0.07       87.2       78.9       86.6       59.3       0.00       0.00      0.000
12:30pm           265          0          8         53         40       78.1       88.8      28.99       0.07       88.8       79.2       89.0       61.4       0.00       0.00      0.000
1:00pm            243          2          7         53         39       78.4       89.5      28.99       0.07       89.5       79.5       89.6       61.3       0.00       0.00      0.000
1:30pm            252          2         11         53         38       78.8       89.4      28.97       0.07       89.4       79.9       89.2       60.5       0.00       0.00      0.000
2:00pm            238          0          9         53         40       79.1       90.5      28.97       0.07       90.5       80.2       91.4       62.9       0.00       0.00      0.000
2:30pm            254          3         10         53         41       79.5       90.4      28.96       0.07       90.4       80.6       91.6       63.5       0.00       0.00      0.000
3:00pm            257          5         10         53         40       79.8       89.4      28.94       0.07       89.4       80.9       89.8       61.9       0.00       0.00      0.000
3:30pm            240          5         12         53         40       80.2       89.8      28.93       0.07       89.8       81.3       90.4       62.3       0.00       0.00      0.000
4:00pm            209          3         10         53         37       80.5       88.4      28.92       0.07       88.4       81.6       87.6       58.8       0.00       0.00      0.000
4:30pm            217          1         12         53         35       80.9       89.3      28.92       0.07       89.3       82.0       88.3       58.1       0.00       0.00      0.000
5:00pm            208          0          9         54         34       81.1       89.4      28.91       0.07       89.4       82.3       88.1       57.4       0.00       0.00      0.000
5:30pm            217          2          9         54         36       81.4       88.6      28.91       0.07       88.6       82.7       87.6       58.3       0.00       0.00      0.000
6:00pm            243          1         10         54         36       81.7       87.3      28.91       0.07       87.3       83.0       86.1       57.1       0.00       0.00      0.000
6:30pm            250          3          7         54         37       82.0       85.5      28.91       0.07       85.5       83.4       84.3       56.3       0.00       0.00      0.000
7:00pm            242          3          8         54         42       82.1       82.1      28.91       0.07       82.1       83.5       81.8       56.8       0.00       0.00      0.000
7:30pm            229          0          8         54         57       82.1       77.7      28.91       0.07       77.7       83.5       79.2       61.3       0.00       0.00      0.000
8:00pm            250          0          5         54         65       82.1       74.2      28.91       0.07       74.2       83.5       76.6       61.7       0.00       0.00      0.000
8:30pm            236          0          0         54         70       82.0       73.3      28.92       0.07       73.3       83.4       76.3       62.9       0.00       0.00      0.000
9:00pm            236          0          0         54         70       81.9       71.9      28.92       0.07       71.9       83.3       74.9       61.6       0.00       0.00      0.000